Preview of NWS' New Version of Forecast
This preview is not operational and should not be used for support decisions.

Terminal Aerodrome Forecast (TAF)

Issued by National Weather Service (NWS)

                            
000
FTUS42 KCAE 161458 AAA
TAFOGB
TAF AMD
KOGB 161458Z 1615/1712 03008G15KT P6SM SCT040
     FM162100 03008KT P6SM SCT040
     FM170000 VRB03KT P6SM SKC=